sensor_id;sensor_type;location;lat;lon;timestamp;temperature;humidity
25300;DHT22;13241;51.208;4.432;2023-04-25T00:02:12;9.10;99.90
25300;DHT22;13241;51.208;4.432;2023-04-25T00:04:39;9.00;99.90
25300;DHT22;13241;51.208;4.432;2023-04-25T00:07:07;9.10;99.90
25300;DHT22;13241;51.208;4.432;2023-04-25T00:09:34;9.10;99.90
25300;DHT22;13241;51.208;4.432;2023-04-25T00:12:01;9.00;99.90
25300;DHT22;13241;51.208;4.432;2023-04-25T00:14:29;9.10;99.90
25300;DHT22;13241;51.208;4.432;2023-04-25T00:16:57;9.10;99.90
25300;DHT22;13241;51.208;4.432;2023-04-25T00:19:24;9.10;99.90
25300;DHT22;13241;51.208;4.432;2023-04-25T00:21:51;9.10;99.90
25300;DHT22;13241;51.208;4.432;2023-04-25T00:24:19;9.10;99.90
25300;DHT22;13241;51.208;4.432;2023-04-25T00:26:46;9.10;99.90
25300;DHT22;13241;51.208;4.432;2023-04-25T00:29:12;9.10;99.90
25300;DHT22;13241;51.208;4.432;2023-04-25T00:31:39;9.10;99.90
25300;DHT22;13241;51.208;4.432;2023-04-25T00:34:06;9.20;99.90
25300;DHT22;13241;51.208;4.432;2023-04-25T00:36:35;9.10;99.90
25300;DHT22;13241;51.208;4.432;2023-04-25T00:39:02;9.10;99.90
25300;DHT22;13241;51.208;4.432;2023-04-25T00:41:32;9.10;99.90
25300;DHT22;13241;51.208;4.432;2023-04-25T00:44:00;9.10;99.90
25300;DHT22;13241;51.208;4.432;2023-04-25T00:46:27;9.10;99.90
25300;DHT22;13241;51.208;4.432;2023-04-25T00:48:55;9.10;99.90
25300;DHT22;13241;51.208;4.432;2023-04-25T00:51:22;9.10;99.90
25300;DHT22;13241;51.208;4.432;2023-04-25T00:53:49;9.10;99.90
25300;DHT22;13241;51.208;4.432;2023-04-25T00:56:18;9.10;99.90
25300;DHT22;13241;51.208;4.432;2023-04-25T00:58:45;9.10;99.90
25300;DHT22;13241;51.208;4.432;2023-04-25T01:01:12;9.10;99.90
25300;DHT22;13241;51.208;4.432;2023-04-25T01:03:40;8.80;99.90
25300;DHT22;13241;51.208;4.432;2023-04-25T01:06:10;9.00;99.90
25300;DHT22;13241;51.208;4.432;2023-04-25T01:08:38;9.00;99.90
25300;DHT22;13241;51.208;4.432;2023-04-25T01:11:05;9.00;99.90
25300;DHT22;13241;51.208;4.432;2023-04-25T01:13:33;9.00;99.90
25300;DHT22;13241;51.208;4.432;2023-04-25T01:16:01;8.80;99.90
25300;DHT22;13241;51.208;4.432;2023-04-25T01:18:28;8.90;99.90
25300;DHT22;13241;51.208;4.432;2023-04-25T01:20:55;8.90;99.90
25300;DHT22;13241;51.208;4.432;2023-04-25T01:23:24;9.00;99.90
25300;DHT22;13241;51.208;4.432;2023-04-25T01:25:52;8.90;99.90
25300;DHT22;13241;51.208;4.432;2023-04-25T01:28:19;8.90;99.90
25300;DHT22;13241;51.208;4.432;2023-04-25T01:30:47;8.90;99.90
25300;DHT22;13241;51.208;4.432;2023-04-25T01:33:14;8.90;99.90
25300;DHT22;13241;51.208;4.432;2023-04-25T01:35:42;8.90;99.90
25300;DHT22;13241;51.208;4.432;2023-04-25T01:38:08;8.90;99.90
25300;DHT22;13241;51.208;4.432;2023-04-25T01:40:39;9.00;99.90
25300;DHT22;13241;51.208;4.432;2023-04-25T01:43:08;9.00;99.90
25300;DHT22;13241;51.208;4.432;2023-04-25T01:45:38;9.00;99.90
25300;DHT22;13241;51.208;4.432;2023-04-25T01:48:12;8.90;99.90
25300;DHT22;13241;51.208;4.432;2023-04-25T01:50:40;8.90;99.90
25300;DHT22;13241;51.208;4.432;2023-04-25T01:53:09;9.00;99.90
25300;DHT22;13241;51.208;4.432;2023-04-25T01:55:36;9.10;99.90
25300;DHT22;13241;51.208;4.432;2023-04-25T01:58:13;8.90;99.90
25300;DHT22;13241;51.208;4.432;2023-04-25T02:01:05;8.90;99.90
25300;DHT22;13241;51.208;4.432;2023-04-25T02:03:40;8.90;99.90
25300;DHT22;13241;51.208;4.432;2023-04-25T02:06:14;8.90;99.90
25300;DHT22;13241;51.208;4.432;2023-04-25T02:08:43;9.00;99.90
25300;DHT22;13241;51.208;4.432;2023-04-25T02:11:12;9.00;99.90
25300;DHT22;13241;51.208;4.432;2023-04-25T02:13:45;9.00;99.90
25300;DHT22;13241;51.208;4.432;2023-04-25T02:16:21;9.10;99.90
25300;DHT22;13241;51.208;4.432;2023-04-25T02:18:48;8.90;99.90
25300;DHT22;13241;51.208;4.432;2023-04-25T02:21:15;8.90;99.90
25300;DHT22;13241;51.208;4.432;2023-04-25T02:23:42;8.80;99.90
25300;DHT22;13241;51.208;4.432;2023-04-25T02:26:09;8.70;99.90
25300;DHT22;13241;51.208;4.432;2023-04-25T02:28:40;8.50;99.90
25300;DHT22;13241;51.208;4.432;2023-04-25T02:31:07;8.40;99.90
25300;DHT22;13241;51.208;4.432;2023-04-25T02:33:34;8.30;99.90
25300;DHT22;13241;51.208;4.432;2023-04-25T02:36:01;8.10;99.90
25300;DHT22;13241;51.208;4.432;2023-04-25T02:38:28;8.00;99.90
25300;DHT22;13241;51.208;4.432;2023-04-25T02:40:56;8.20;99.90
25300;DHT22;13241;51.208;4.432;2023-04-25T02:43:25;8.40;99.90
25300;DHT22;13241;51.208;4.432;2023-04-25T02:45:52;8.30;99.90
25300;DHT22;13241;51.208;4.432;2023-04-25T02:48:19;8.40;99.90
25300;DHT22;13241;51.208;4.432;2023-04-25T02:50:48;8.30;99.90
25300;DHT22;13241;51.208;4.432;2023-04-25T02:53:14;8.40;99.90
25300;DHT22;13241;51.208;4.432;2023-04-25T02:55:46;8.30;99.90
25300;DHT22;13241;51.208;4.432;2023-04-25T02:58:13;8.30;99.90
25300;DHT22;13241;51.208;4.432;2023-04-25T03:00:50;8.50;99.90
25300;DHT22;13241;51.208;4.432;2023-04-25T03:03:17;8.40;99.90
25300;DHT22;13241;51.208;4.432;2023-04-25T03:05:45;8.40;99.90
25300;DHT22;13241;51.208;4.432;2023-04-25T03:08:13;8.30;99.90
25300;DHT22;13241;51.208;4.432;2023-04-25T03:10:40;8.40;99.90
25300;DHT22;13241;51.208;4.432;2023-04-25T03:13:09;8.40;99.90
25300;DHT22;13241;51.208;4.432;2023-04-25T03:15:38;8.40;99.90
25300;DHT22;13241;51.208;4.432;2023-04-25T03:18:06;8.30;99.90
25300;DHT22;13241;51.208;4.432;2023-04-25T03:20:33;8.40;99.90
25300;DHT22;13241;51.208;4.432;2023-04-25T03:23:00;8.50;99.90
25300;DHT22;13241;51.208;4.432;2023-04-25T03:25:28;8.40;99.90
25300;DHT22;13241;51.208;4.432;2023-04-25T03:27:55;8.40;99.90
25300;DHT22;13241;51.208;4.432;2023-04-25T03:30:22;8.40;99.90
25300;DHT22;13241;51.208;4.432;2023-04-25T03:32:49;8.40;99.90
25300;DHT22;13241;51.208;4.432;2023-04-25T03:35:17;8.40;99.90
25300;DHT22;13241;51.208;4.432;2023-04-25T03:37:44;8.30;99.90
25300;DHT22;13241;51.208;4.432;2023-04-25T03:40:18;8.40;99.90
25300;DHT22;13241;51.208;4.432;2023-04-25T03:43:06;8.40;99.90
25300;DHT22;13241;51.208;4.432;2023-04-25T03:45:35;8.40;99.90
25300;DHT22;13241;51.208;4.432;2023-04-25T03:48:02;8.30;99.90
25300;DHT22;13241;51.208;4.432;2023-04-25T03:50:29;8.40;99.90
25300;DHT22;13241;51.208;4.432;2023-04-25T03:52:56;8.30;99.90
25300;DHT22;13241;51.208;4.432;2023-04-25T03:55:26;8.30;99.90
25300;DHT22;13241;51.208;4.432;2023-04-25T03:57:53;8.20;99.90
25300;DHT22;13241;51.208;4.432;2023-04-25T04:00:20;8.10;99.90
25300;DHT22;13241;51.208;4.432;2023-04-25T04:02:51;8.00;99.90
25300;DHT22;13241;51.208;4.432;2023-04-25T04:05:18;8.20;99.90
25300;DHT22;13241;51.208;4.432;2023-04-25T04:07:51;8.00;99.90
25300;DHT22;13241;51.208;4.432;2023-04-25T04:10:18;7.90;99.90
25300;DHT22;13241;51.208;4.432;2023-04-25T04:12:45;7.80;99.90
25300;DHT22;13241;51.208;4.432;2023-04-25T04:15:13;7.80;99.90
25300;DHT22;13241;51.208;4.432;2023-04-25T04:17:42;7.80;99.90
25300;DHT22;13241;51.208;4.432;2023-04-25T04:20:10;7.80;99.90
25300;DHT22;13241;51.208;4.432;2023-04-25T04:22:38;7.80;99.90
25300;DHT22;13241;51.208;4.432;2023-04-25T04:25:09;7.80;99.90
25300;DHT22;13241;51.208;4.432;2023-04-25T04:28:13;7.80;99.90
25300;DHT22;13241;51.208;4.432;2023-04-25T04:30:52;7.90;99.90
25300;DHT22;13241;51.208;4.432;2023-04-25T04:33:19;7.90;99.90
25300;DHT22;13241;51.208;4.432;2023-04-25T04:35:50;8.00;99.90
25300;DHT22;13241;51.208;4.432;2023-04-25T04:38:20;7.80;99.90
25300;DHT22;13241;51.208;4.432;2023-04-25T04:40:49;7.90;99.90
25300;DHT22;13241;51.208;4.432;2023-04-25T04:43:34;7.90;99.90
25300;DHT22;13241;51.208;4.432;2023-04-25T04:46:06;8.00;99.90
25300;DHT22;13241;51.208;4.432;2023-04-25T04:49:10;8.00;99.90
25300;DHT22;13241;51.208;4.432;2023-04-25T04:51:54;8.10;99.90
25300;DHT22;13241;51.208;4.432;2023-04-25T04:54:45;8.20;99.90
25300;DHT22;13241;51.208;4.432;2023-04-25T04:57:24;8.10;99.90
25300;DHT22;13241;51.208;4.432;2023-04-25T05:00:11;8.30;99.90
25300;DHT22;13241;51.208;4.432;2023-04-25T05:02:57;8.20;99.90
25300;DHT22;13241;51.208;4.432;2023-04-25T05:05:53;8.20;99.90
25300;DHT22;13241;51.208;4.432;2023-04-25T05:08:48;8.30;99.90
25300;DHT22;13241;51.208;4.432;2023-04-25T05:11:26;8.30;99.90
25300;DHT22;13241;51.208;4.432;2023-04-25T05:14:12;8.20;99.90
25300;DHT22;13241;51.208;4.432;2023-04-25T05:16:42;8.30;99.90
25300;DHT22;13241;51.208;4.432;2023-04-25T05:19:27;8.30;99.90
25300;DHT22;13241;51.208;4.432;2023-04-25T05:22:12;8.40;99.90
25300;DHT22;13241;51.208;4.432;2023-04-25T05:25:00;8.40;99.90
25300;DHT22;13241;51.208;4.432;2023-04-25T05:27:56;8.50;99.90
25300;DHT22;13241;51.208;4.432;2023-04-25T05:30:49;8.50;99.90
25300;DHT22;13241;51.208;4.432;2023-04-25T05:33:20;8.50;99.90
25300;DHT22;13241;51.208;4.432;2023-04-25T05:35:48;8.50;99.90
25300;DHT22;13241;51.208;4.432;2023-04-25T05:38:15;8.50;99.90
25300;DHT22;13241;51.208;4.432;2023-04-25T05:41:00;8.50;99.90
25300;DHT22;13241;51.208;4.432;2023-04-25T05:44:03;8.50;99.90
25300;DHT22;13241;51.208;4.432;2023-04-25T05:46:45;8.50;99.90
25300;DHT22;13241;51.208;4.432;2023-04-25T05:49:12;8.50;99.90
25300;DHT22;13241;51.208;4.432;2023-04-25T05:52:02;8.40;99.90
25300;DHT22;13241;51.208;4.432;2023-04-25T05:54:48;8.40;99.90
25300;DHT22;13241;51.208;4.432;2023-04-25T05:57:25;8.40;99.90
25300;DHT22;13241;51.208;4.432;2023-04-25T05:59:54;8.50;99.90
25300;DHT22;13241;51.208;4.432;2023-04-25T06:02:27;8.60;99.90
25300;DHT22;13241;51.208;4.432;2023-04-25T06:04:55;8.70;99.90
25300;DHT22;13241;51.208;4.432;2023-04-25T06:07:22;8.70;99.90
25300;DHT22;13241;51.208;4.432;2023-04-25T06:09:49;8.70;99.90
25300;DHT22;13241;51.208;4.432;2023-04-25T06:12:16;8.80;99.90
25300;DHT22;13241;51.208;4.432;2023-04-25T06:14:43;9.00;99.90
25300;DHT22;13241;51.208;4.432;2023-04-25T06:17:11;8.80;99.90
25300;DHT22;13241;51.208;4.432;2023-04-25T06:19:38;8.90;99.90
25300;DHT22;13241;51.208;4.432;2023-04-25T06:22:05;9.10;99.90
25300;DHT22;13241;51.208;4.432;2023-04-25T06:24:34;9.10;99.90
25300;DHT22;13241;51.208;4.432;2023-04-25T06:27:03;9.20;99.90
25300;DHT22;13241;51.208;4.432;2023-04-25T06:29:30;9.10;99.90
25300;DHT22;13241;51.208;4.432;2023-04-25T06:31:57;9.00;99.90
25300;DHT22;13241;51.208;4.432;2023-04-25T06:34:24;8.90;99.90
25300;DHT22;13241;51.208;4.432;2023-04-25T06:36:52;8.90;99.90
25300;DHT22;13241;51.208;4.432;2023-04-25T06:39:20;8.90;99.90
25300;DHT22;13241;51.208;4.432;2023-04-25T06:41:49;8.90;99.90
25300;DHT22;13241;51.208;4.432;2023-04-25T06:44:35;8.90;99.90
25300;DHT22;13241;51.208;4.432;2023-04-25T06:47:03;9.00;99.90
25300;DHT22;13241;51.208;4.432;2023-04-25T06:49:31;9.00;99.90
25300;DHT22;13241;51.208;4.432;2023-04-25T06:51:57;9.00;99.90
25300;DHT22;13241;51.208;4.432;2023-04-25T06:54:25;9.10;99.90
25300;DHT22;13241;51.208;4.432;2023-04-25T06:57:01;9.10;99.90
25300;DHT22;13241;51.208;4.432;2023-04-25T06:59:28;9.20;99.90
25300;DHT22;13241;51.208;4.432;2023-04-25T07:01:55;9.30;99.90
25300;DHT22;13241;51.208;4.432;2023-04-25T07:04:25;9.30;99.90
25300;DHT22;13241;51.208;4.432;2023-04-25T07:06:57;9.20;99.90
25300;DHT22;13241;51.208;4.432;2023-04-25T07:09:35;9.10;99.90
25300;DHT22;13241;51.208;4.432;2023-04-25T07:12:04;9.10;99.90
25300;DHT22;13241;51.208;4.432;2023-04-25T07:14:32;9.00;99.90
25300;DHT22;13241;51.208;4.432;2023-04-25T07:17:00;9.00;99.90
25300;DHT22;13241;51.208;4.432;2023-04-25T07:19:29;8.90;99.90
25300;DHT22;13241;51.208;4.432;2023-04-25T07:21:59;8.90;99.90
25300;DHT22;13241;51.208;4.432;2023-04-25T07:24:26;9.00;99.90
25300;DHT22;13241;51.208;4.432;2023-04-25T07:26:54;9.00;99.90
25300;DHT22;13241;51.208;4.432;2023-04-25T07:29:26;9.00;99.90
25300;DHT22;13241;51.208;4.432;2023-04-25T07:31:53;9.20;99.90
25300;DHT22;13241;51.208;4.432;2023-04-25T07:34:21;9.50;99.90
25300;DHT22;13241;51.208;4.432;2023-04-25T07:36:48;9.80;99.90
25300;DHT22;13241;51.208;4.432;2023-04-25T07:39:16;9.90;99.90
25300;DHT22;13241;51.208;4.432;2023-04-25T07:41:43;10.30;99.90
25300;DHT22;13241;51.208;4.432;2023-04-25T07:44:16;10.50;99.90
25300;DHT22;13241;51.208;4.432;2023-04-25T07:46:44;10.50;99.90
25300;DHT22;13241;51.208;4.432;2023-04-25T07:49:11;10.80;99.90
25300;DHT22;13241;51.208;4.432;2023-04-25T07:51:39;11.00;99.90
25300;DHT22;13241;51.208;4.432;2023-04-25T07:54:11;11.20;99.90
25300;DHT22;13241;51.208;4.432;2023-04-25T07:56:43;11.70;99.90
25300;DHT22;13241;51.208;4.432;2023-04-25T07:59:18;12.10;99.90
25300;DHT22;13241;51.208;4.432;2023-04-25T08:01:45;12.60;99.90
25300;DHT22;13241;51.208;4.432;2023-04-25T08:04:13;12.70;99.90
25300;DHT22;13241;51.208;4.432;2023-04-25T08:06:49;12.40;99.90
25300;DHT22;13241;51.208;4.432;2023-04-25T08:09:22;11.80;99.90
25300;DHT22;13241;51.208;4.432;2023-04-25T08:11:50;11.00;99.90
25300;DHT22;13241;51.208;4.432;2023-04-25T08:14:22;10.30;99.90
25300;DHT22;13241;51.208;4.432;2023-04-25T08:16:49;9.90;99.90
25300;DHT22;13241;51.208;4.432;2023-04-25T08:19:18;9.60;99.90
25300;DHT22;13241;51.208;4.432;2023-04-25T08:21:46;9.60;99.90
25300;DHT22;13241;51.208;4.432;2023-04-25T08:24:18;9.70;99.90
25300;DHT22;13241;51.208;4.432;2023-04-25T08:26:45;10.00;99.90
25300;DHT22;13241;51.208;4.432;2023-04-25T08:29:15;10.40;99.90
25300;DHT22;13241;51.208;4.432;2023-04-25T08:31:43;10.60;99.90
25300;DHT22;13241;51.208;4.432;2023-04-25T08:34:12;10.90;99.90
25300;DHT22;13241;51.208;4.432;2023-04-25T08:36:44;11.30;99.90
25300;DHT22;13241;51.208;4.432;2023-04-25T08:39:47;11.40;99.90
25300;DHT22;13241;51.208;4.432;2023-04-25T08:42:19;11.80;99.90
25300;DHT22;13241;51.208;4.432;2023-04-25T08:44:49;11.80;99.90
25300;DHT22;13241;51.208;4.432;2023-04-25T08:47:20;12.00;99.90
25300;DHT22;13241;51.208;4.432;2023-04-25T08:49:53;12.20;99.90
25300;DHT22;13241;51.208;4.432;2023-04-25T08:52:28;12.20;99.90
25300;DHT22;13241;51.208;4.432;2023-04-25T08:54:57;12.00;99.90
25300;DHT22;13241;51.208;4.432;2023-04-25T08:57:28;11.70;99.90
25300;DHT22;13241;51.208;4.432;2023-04-25T08:59:58;11.80;99.90
25300;DHT22;13241;51.208;4.432;2023-04-25T09:02:25;12.00;99.90
25300;DHT22;13241;51.208;4.432;2023-04-25T09:04:53;12.30;99.90
25300;DHT22;13241;51.208;4.432;2023-04-25T09:07:22;12.70;99.90
25300;DHT22;13241;51.208;4.432;2023-04-25T09:09:49;13.00;99.90
25300;DHT22;13241;51.208;4.432;2023-04-25T09:12:19;13.40;99.90
25300;DHT22;13241;51.208;4.432;2023-04-25T09:15:05;13.50;99.90
25300;DHT22;13241;51.208;4.432;2023-04-25T09:17:59;13.30;99.90
25300;DHT22;13241;51.208;4.432;2023-04-25T09:20:32;13.20;99.90
25300;DHT22;13241;51.208;4.432;2023-04-25T09:23:11;12.50;99.90
25300;DHT22;13241;51.208;4.432;2023-04-25T09:25:38;12.20;99.90
25300;DHT22;13241;51.208;4.432;2023-04-25T09:28:10;11.80;99.90
25300;DHT22;13241;51.208;4.432;2023-04-25T09:30:38;11.70;99.90
25300;DHT22;13241;51.208;4.432;2023-04-25T09:33:29;11.80;99.90
25300;DHT22;13241;51.208;4.432;2023-04-25T09:36:06;12.00;99.90
25300;DHT22;13241;51.208;4.432;2023-04-25T09:39:12;12.20;99.90
25300;DHT22;13241;51.208;4.432;2023-04-25T09:41:53;12.10;99.90
25300;DHT22;13241;51.208;4.432;2023-04-25T09:44:24;11.70;99.90
25300;DHT22;13241;51.208;4.432;2023-04-25T09:46:53;11.60;99.90
25300;DHT22;13241;51.208;4.432;2023-04-25T09:49:25;11.40;99.90
25300;DHT22;13241;51.208;4.432;2023-04-25T09:52:02;11.30;99.90
25300;DHT22;13241;51.208;4.432;2023-04-25T09:54:47;11.20;99.90
25300;DHT22;13241;51.208;4.432;2023-04-25T09:57:21;11.20;99.90
25300;DHT22;13241;51.208;4.432;2023-04-25T09:59:51;11.00;99.90
25300;DHT22;13241;51.208;4.432;2023-04-25T10:02:22;10.90;99.90
25300;DHT22;13241;51.208;4.432;2023-04-25T10:04:55;11.10;99.90
25300;DHT22;13241;51.208;4.432;2023-04-25T10:07:38;11.80;99.90
25300;DHT22;13241;51.208;4.432;2023-04-25T10:10:14;12.30;99.90
25300;DHT22;13241;51.208;4.432;2023-04-25T10:12:42;12.70;99.90
25300;DHT22;13241;51.208;4.432;2023-04-25T10:15:11;12.80;99.90
25300;DHT22;13241;51.208;4.432;2023-04-25T10:17:38;12.40;99.90
25300;DHT22;13241;51.208;4.432;2023-04-25T10:20:07;12.10;99.90
25300;DHT22;13241;51.208;4.432;2023-04-25T10:22:41;11.80;99.90
25300;DHT22;13241;51.208;4.432;2023-04-25T10:25:08;11.40;99.90
25300;DHT22;13241;51.208;4.432;2023-04-25T10:27:37;11.40;99.90
25300;DHT22;13241;51.208;4.432;2023-04-25T10:30:16;11.20;99.90
25300;DHT22;13241;51.208;4.432;2023-04-25T10:32:44;11.20;99.90
25300;DHT22;13241;51.208;4.432;2023-04-25T10:35:12;11.30;99.90
25300;DHT22;13241;51.208;4.432;2023-04-25T10:37:57;11.40;99.90
25300;DHT22;13241;51.208;4.432;2023-04-25T10:40:25;11.40;99.90
25300;DHT22;13241;51.208;4.432;2023-04-25T10:42:53;11.30;99.90
25300;DHT22;13241;51.208;4.432;2023-04-25T10:45:21;11.10;99.90
25300;DHT22;13241;51.208;4.432;2023-04-25T10:47:48;11.00;99.90
25300;DHT22;13241;51.208;4.432;2023-04-25T10:50:15;11.20;99.90
25300;DHT22;13241;51.208;4.432;2023-04-25T10:52:45;11.70;99.90
25300;DHT22;13241;51.208;4.432;2023-04-25T10:55:12;12.30;99.90
25300;DHT22;13241;51.208;4.432;2023-04-25T10:57:44;12.70;99.90
25300;DHT22;13241;51.208;4.432;2023-04-25T11:00:20;12.70;99.90
25300;DHT22;13241;51.208;4.432;2023-04-25T11:02:59;12.60;99.90
25300;DHT22;13241;51.208;4.432;2023-04-25T11:07:54;12.00;99.90
25300;DHT22;13241;51.208;4.432;2023-04-25T11:10:33;12.10;99.90
25300;DHT22;13241;51.208;4.432;2023-04-25T11:13:03;12.30;99.90
25300;DHT22;13241;51.208;4.432;2023-04-25T11:15:30;12.40;99.90
25300;DHT22;13241;51.208;4.432;2023-04-25T11:17:57;12.50;99.90
25300;DHT22;13241;51.208;4.432;2023-04-25T11:20:26;12.50;99.90
25300;DHT22;13241;51.208;4.432;2023-04-25T11:22:57;12.40;99.90
25300;DHT22;13241;51.208;4.432;2023-04-25T11:25:26;12.40;99.90
25300;DHT22;13241;51.208;4.432;2023-04-25T11:27:55;12.30;99.90
25300;DHT22;13241;51.208;4.432;2023-04-25T11:30:23;12.30;99.90
25300;DHT22;13241;51.208;4.432;2023-04-25T11:32:51;12.40;99.90
25300;DHT22;13241;51.208;4.432;2023-04-25T11:35:20;12.40;99.90
25300;DHT22;13241;51.208;4.432;2023-04-25T11:37:49;12.60;99.90
25300;DHT22;13241;51.208;4.432;2023-04-25T11:40:17;12.70;99.90
25300;DHT22;13241;51.208;4.432;2023-04-25T11:42:46;12.90;99.90
25300;DHT22;13241;51.208;4.432;2023-04-25T11:45:13;13.20;99.90
25300;DHT22;13241;51.208;4.432;2023-04-25T11:47:40;13.10;99.90
25300;DHT22;13241;51.208;4.432;2023-04-25T11:50:08;13.40;99.90
25300;DHT22;13241;51.208;4.432;2023-04-25T11:52:46;13.60;99.90
25300;DHT22;13241;51.208;4.432;2023-04-25T11:55:19;13.30;99.90
25300;DHT22;13241;51.208;4.432;2023-04-25T11:57:49;13.00;99.90
25300;DHT22;13241;51.208;4.432;2023-04-25T12:00:21;12.60;99.90
25300;DHT22;13241;51.208;4.432;2023-04-25T12:02:55;12.30;99.90
25300;DHT22;13241;51.208;4.432;2023-04-25T12:05:27;12.20;99.90
25300;DHT22;13241;51.208;4.432;2023-04-25T12:08:09;12.20;99.90
25300;DHT22;13241;51.208;4.432;2023-04-25T12:10:38;12.60;99.90
25300;DHT22;13241;51.208;4.432;2023-04-25T12:13:27;12.90;99.90
25300;DHT22;13241;51.208;4.432;2023-04-25T12:15:55;13.10;99.90
25300;DHT22;13241;51.208;4.432;2023-04-25T12:18:24;12.90;99.90
25300;DHT22;13241;51.208;4.432;2023-04-25T12:20:54;12.70;99.90
25300;DHT22;13241;51.208;4.432;2023-04-25T12:23:28;12.50;99.90
25300;DHT22;13241;51.208;4.432;2023-04-25T12:25:55;12.70;99.90
25300;DHT22;13241;51.208;4.432;2023-04-25T12:28:24;12.90;99.90
25300;DHT22;13241;51.208;4.432;2023-04-25T12:33:31;13.10;99.90
25300;DHT22;13241;51.208;4.432;2023-04-25T12:35:59;13.00;99.90
25300;DHT22;13241;51.208;4.432;2023-04-25T12:38:30;12.90;99.90
25300;DHT22;13241;51.208;4.432;2023-04-25T12:40:58;12.60;99.90
25300;DHT22;13241;51.208;4.432;2023-04-25T12:43:25;12.40;99.90
25300;DHT22;13241;51.208;4.432;2023-04-25T12:45:53;12.20;99.90
25300;DHT22;13241;51.208;4.432;2023-04-25T12:48:20;12.50;99.90
25300;DHT22;13241;51.208;4.432;2023-04-25T12:50:48;13.30;99.90
25300;DHT22;13241;51.208;4.432;2023-04-25T12:53:17;13.70;99.90
25300;DHT22;13241;51.208;4.432;2023-04-25T12:55:45;13.80;99.90
25300;DHT22;13241;51.208;4.432;2023-04-25T12:58:16;13.60;99.90
25300;DHT22;13241;51.208;4.432;2023-04-25T13:00:44;13.60;99.90
25300;DHT22;13241;51.208;4.432;2023-04-25T13:03:12;13.70;99.90
25300;DHT22;13241;51.208;4.432;2023-04-25T13:05:59;13.50;99.90
25300;DHT22;13241;51.208;4.432;2023-04-25T13:08:26;13.20;99.90
25300;DHT22;13241;51.208;4.432;2023-04-25T13:10:53;12.90;99.90
25300;DHT22;13241;51.208;4.432;2023-04-25T13:13:19;12.90;99.90
25300;DHT22;13241;51.208;4.432;2023-04-25T13:15:46;13.10;99.90
25300;DHT22;13241;51.208;4.432;2023-04-25T13:18:15;13.30;99.90
25300;DHT22;13241;51.208;4.432;2023-04-25T13:20:42;13.60;99.90
25300;DHT22;13241;51.208;4.432;2023-04-25T13:23:08;13.80;99.90
25300;DHT22;13241;51.208;4.432;2023-04-25T13:25:35;14.20;99.90
25300;DHT22;13241;51.208;4.432;2023-04-25T13:28:02;14.70;99.90
25300;DHT22;13241;51.208;4.432;2023-04-25T13:30:29;15.20;99.90
25300;DHT22;13241;51.208;4.432;2023-04-25T13:32:56;15.50;99.90
25300;DHT22;13241;51.208;4.432;2023-04-25T13:35:24;15.60;99.90
25300;DHT22;13241;51.208;4.432;2023-04-25T13:37:51;15.20;99.90
25300;DHT22;13241;51.208;4.432;2023-04-25T13:40:18;14.50;99.90
25300;DHT22;13241;51.208;4.432;2023-04-25T13:42:44;14.70;99.90
25300;DHT22;13241;51.208;4.432;2023-04-25T13:45:13;14.80;99.90
25300;DHT22;13241;51.208;4.432;2023-04-25T13:47:40;14.40;99.90
25300;DHT22;13241;51.208;4.432;2023-04-25T13:50:07;14.10;99.90
25300;DHT22;13241;51.208;4.432;2023-04-25T13:52:37;14.60;99.90
25300;DHT22;13241;51.208;4.432;2023-04-25T13:55:04;15.90;99.90
25300;DHT22;13241;51.208;4.432;2023-04-25T13:57:34;16.80;99.90
25300;DHT22;13241;51.208;4.432;2023-04-25T14:00:01;17.00;99.90
25300;DHT22;13241;51.208;4.432;2023-04-25T14:02:33;16.80;99.90
25300;DHT22;13241;51.208;4.432;2023-04-25T14:05:00;17.50;99.90
25300;DHT22;13241;51.208;4.432;2023-04-25T14:07:27;17.60;99.90
25300;DHT22;13241;51.208;4.432;2023-04-25T14:09:54;16.60;99.90
25300;DHT22;13241;51.208;4.432;2023-04-25T14:12:23;16.30;99.90
25300;DHT22;13241;51.208;4.432;2023-04-25T14:14:50;16.80;99.90
25300;DHT22;13241;51.208;4.432;2023-04-25T14:17:17;17.80;99.90
25300;DHT22;13241;51.208;4.432;2023-04-25T14:19:45;18.30;99.90
25300;DHT22;13241;51.208;4.432;2023-04-25T14:22:14;18.90;99.90
25300;DHT22;13241;51.208;4.432;2023-04-25T14:24:42;19.60;99.90
25300;DHT22;13241;51.208;4.432;2023-04-25T14:27:09;20.00;99.90
25300;DHT22;13241;51.208;4.432;2023-04-25T14:29:36;20.10;99.90
25300;DHT22;13241;51.208;4.432;2023-04-25T14:32:03;20.40;99.60
25300;DHT22;13241;51.208;4.432;2023-04-25T14:34:31;20.40;98.70
25300;DHT22;13241;51.208;4.432;2023-04-25T14:36:58;20.50;98.20
25300;DHT22;13241;51.208;4.432;2023-04-25T14:39:25;20.30;98.20
25300;DHT22;13241;51.208;4.432;2023-04-25T14:41:52;19.90;98.30
25300;DHT22;13241;51.208;4.432;2023-04-25T14:44:19;19.40;97.70
25300;DHT22;13241;51.208;4.432;2023-04-25T14:46:46;19.00;98.60
25300;DHT22;13241;51.208;4.432;2023-04-25T14:49:13;19.30;98.30
25300;DHT22;13241;51.208;4.432;2023-04-25T14:51:40;19.50;98.10
25300;DHT22;13241;51.208;4.432;2023-04-25T14:54:07;19.50;98.20
25300;DHT22;13241;51.208;4.432;2023-04-25T14:56:34;19.30;98.10
25300;DHT22;13241;51.208;4.432;2023-04-25T14:59:01;19.50;97.80
25300;DHT22;13241;51.208;4.432;2023-04-25T15:01:28;18.90;97.60
25300;DHT22;13241;51.208;4.432;2023-04-25T15:03:55;18.80;98.10
25300;DHT22;13241;51.208;4.432;2023-04-25T15:06:23;19.30;96.90
25300;DHT22;13241;51.208;4.432;2023-04-25T15:08:53;19.60;96.10
25300;DHT22;13241;51.208;4.432;2023-04-25T15:11:22;19.10;96.80
25300;DHT22;13241;51.208;4.432;2023-04-25T15:13:49;18.60;97.40
25300;DHT22;13241;51.208;4.432;2023-04-25T15:16:16;17.80;98.00
25300;DHT22;13241;51.208;4.432;2023-04-25T15:18:43;17.20;98.50
25300;DHT22;13241;51.208;4.432;2023-04-25T15:21:10;17.20;98.50
25300;DHT22;13241;51.208;4.432;2023-04-25T15:23:37;16.40;99.70
25300;DHT22;13241;51.208;4.432;2023-04-25T15:26:04;16.20;99.90
25300;DHT22;13241;51.208;4.432;2023-04-25T15:28:31;16.30;99.20
25300;DHT22;13241;51.208;4.432;2023-04-25T15:31:00;16.70;98.60
25300;DHT22;13241;51.208;4.432;2023-04-25T15:33:27;16.80;97.80
25300;DHT22;13241;51.208;4.432;2023-04-25T15:38:21;16.30;98.90
25300;DHT22;13241;51.208;4.432;2023-04-25T15:40:48;15.30;99.20
25300;DHT22;13241;51.208;4.432;2023-04-25T15:43:15;14.70;99.50
25300;DHT22;13241;51.208;4.432;2023-04-25T15:45:43;14.90;99.90
25300;DHT22;13241;51.208;4.432;2023-04-25T15:48:11;14.90;99.90
25300;DHT22;13241;51.208;4.432;2023-04-25T15:50:43;16.40;99.20
25300;DHT22;13241;51.208;4.432;2023-04-25T15:53:12;18.00;97.90
25300;DHT22;13241;51.208;4.432;2023-04-25T15:55:41;18.30;96.20
25300;DHT22;13241;51.208;4.432;2023-04-25T15:58:10;17.50;96.80
25300;DHT22;13241;51.208;4.432;2023-04-25T16:00:39;15.90;98.10
25300;DHT22;13241;51.208;4.432;2023-04-25T16:03:06;14.70;99.20
25300;DHT22;13241;51.208;4.432;2023-04-25T16:05:33;13.80;99.90
25300;DHT22;13241;51.208;4.432;2023-04-25T16:08:00;13.30;99.90